createdAt,value
2022-08-01T00:00:05.062Z,19.90
2022-08-01T00:02:32.339Z,19.90
2022-08-01T00:04:59.247Z,19.80
2022-08-01T00:07:26.011Z,19.80
2022-08-01T00:09:52.815Z,19.70
2022-08-01T00:12:19.568Z,19.70
2022-08-01T00:14:46.340Z,19.80
2022-08-01T00:17:13.119Z,19.80
2022-08-01T00:19:39.902Z,19.80
2022-08-01T00:22:06.816Z,19.80
2022-08-01T00:24:33.904Z,19.70
2022-08-01T00:27:00.679Z,19.70
2022-08-01T00:30:09.667Z,19.60
2022-08-01T00:32:14.271Z,19.60
2022-08-01T00:34:41.045Z,19.60
2022-08-01T00:37:07.797Z,19.50
2022-08-01T00:39:34.591Z,19.40
2022-08-01T00:42:01.864Z,19.40
2022-08-01T00:44:28.737Z,19.40
2022-08-01T00:46:55.492Z,19.40
2022-08-01T00:49:22.285Z,19.40
2022-08-01T00:51:49.486Z,19.30
2022-08-01T00:54:17.104Z,19.30
2022-08-01T00:56:44.078Z,19.20
2022-08-01T00:59:10.881Z,19.10
2022-08-01T01:01:39.696Z,19.20
2022-08-01T01:04:08.690Z,19.20
2022-08-01T01:06:54.099Z,19.20
2022-08-01T01:09:30.427Z,19.20
2022-08-01T01:12:00.320Z,19.10
2022-08-01T01:14:38.435Z,19.00
2022-08-01T01:17:06.323Z,19.00
2022-08-01T01:19:33.847Z,19.00
2022-08-01T01:22:33.241Z,18.90
2022-08-01T01:25:09.172Z,19.00
2022-08-01T01:27:38.964Z,19.00
2022-08-01T01:30:07.169Z,19.00
2022-08-01T01:32:35.206Z,19.00
2022-08-01T01:35:12.293Z,19.00
2022-08-01T01:37:39.701Z,19.00
2022-08-01T01:40:06.997Z,19.00
2022-08-01T01:42:33.769Z,19.00
2022-08-01T01:45:01.184Z,19.10
2022-08-01T01:47:27.945Z,19.00
2022-08-01T01:49:54.750Z,19.10
2022-08-01T01:52:21.553Z,19.10
2022-08-01T01:54:49.148Z,19.10
2022-08-01T01:57:16.000Z,19.00
2022-08-01T01:59:42.759Z,19.00
2022-08-01T02:02:09.732Z,18.90
2022-08-01T02:04:37.608Z,18.90
2022-08-01T02:07:04.410Z,18.90
2022-08-01T02:09:31.253Z,18.90
2022-08-01T02:12:07.585Z,18.80
2022-08-01T02:14:36.414Z,18.80
2022-08-01T02:17:05.167Z,18.70
2022-08-01T02:19:32.069Z,18.70
2022-08-01T02:22:24.739Z,18.70
2022-08-01T02:24:53.549Z,18.60
2022-08-01T02:27:23.052Z,18.60
2022-08-01T02:29:59.499Z,18.60
2022-08-01T02:32:33.092Z,18.60
2022-08-01T02:35:01.026Z,18.60
2022-08-01T02:37:27.814Z,18.60
2022-08-01T02:39:54.572Z,18.60
2022-08-01T02:42:21.364Z,18.60
2022-08-01T02:44:48.148Z,18.60
2022-08-01T02:47:15.211Z,18.50
2022-08-01T02:49:46.179Z,18.50
2022-08-01T02:52:14.795Z,18.50
2022-08-01T02:54:41.583Z,18.50
2022-08-01T02:57:08.710Z,18.60
2022-08-01T02:59:41.412Z,18.60
2022-08-01T03:02:09.009Z,18.60
2022-08-01T03:04:36.900Z,18.60
2022-08-01T03:07:04.190Z,18.50
2022-08-01T03:09:31.344Z,18.40
2022-08-01T03:11:59.704Z,18.40
2022-08-01T03:14:26.548Z,18.30
2022-08-01T03:16:53.326Z,18.30
2022-08-01T03:19:20.082Z,18.20
2022-08-01T03:21:46.844Z,18.20
2022-08-01T03:24:14.139Z,18.10
2022-08-01T03:26:40.956Z,18.10
2022-08-01T03:29:08.077Z,18.10
2022-08-01T03:31:39.295Z,18.10
2022-08-01T03:34:06.306Z,18.20
2022-08-01T03:36:33.585Z,18.20
2022-08-01T03:39:01.272Z,18.30
2022-08-01T03:41:28.667Z,18.40
2022-08-01T03:43:59.934Z,18.40
2022-08-01T03:46:46.982Z,18.40
2022-08-01T03:49:21.416Z,18.40
2022-08-01T03:51:50.497Z,18.40
2022-08-01T03:54:18.509Z,18.50
2022-08-01T03:56:45.262Z,18.60
2022-08-01T03:59:12.024Z,18.80
2022-08-01T04:01:38.938Z,19.20
2022-08-01T04:04:06.868Z,19.80
2022-08-01T04:06:33.649Z,20.50
2022-08-01T04:09:00.433Z,21.30
2022-08-01T04:11:28.290Z,22.00
2022-08-01T04:13:55.463Z,22.60
2022-08-01T04:16:22.400Z,23.00
2022-08-01T04:18:49.261Z,23.50
2022-08-01T04:21:16.157Z,24.20
2022-08-01T04:23:42.995Z,24.80
2022-08-01T04:26:09.741Z,25.20
2022-08-01T04:28:37.128Z,25.30
2022-08-01T04:31:04.003Z,25.60
2022-08-01T04:33:31.093Z,25.80
2022-08-01T04:36:02.046Z,25.90
2022-08-01T04:38:31.724Z,26.10
2022-08-01T04:40:58.498Z,26.20
2022-08-01T04:43:25.516Z,26.50
2022-08-01T04:45:52.493Z,26.80
2022-08-01T04:48:22.588Z,27.30
2022-08-01T04:50:49.906Z,27.70
2022-08-01T04:53:17.935Z,28.00
2022-08-01T04:55:48.406Z,28.20
2022-08-01T04:58:18.931Z,28.70
2022-08-01T05:00:46.282Z,29.10
2022-08-01T05:03:13.078Z,29.50
2022-08-01T05:05:39.991Z,29.80
2022-08-01T05:08:07.401Z,30.00
2022-08-01T05:10:34.306Z,29.90
2022-08-01T05:13:01.115Z,30.10
2022-08-01T05:15:28.210Z,30.20
2022-08-01T05:17:55.305Z,30.70
2022-08-01T05:20:22.444Z,31.00
2022-08-01T05:22:49.389Z,31.30
2022-08-01T05:25:20.184Z,31.30
2022-08-01T05:27:51.630Z,31.30
2022-08-01T05:30:18.433Z,31.40
2022-08-01T05:32:45.245Z,31.50
2022-08-01T05:35:12.055Z,32.10
2022-08-01T05:37:38.839Z,32.30
2022-08-01T05:40:06.303Z,32.40
2022-08-01T05:42:33.063Z,32.30
2022-08-01T05:44:59.854Z,32.50
2022-08-01T05:47:26.669Z,32.70
2022-08-01T05:49:53.444Z,32.50
2022-08-01T05:52:20.235Z,32.50
2022-08-01T05:54:47.015Z,32.40
2022-08-01T05:57:13.788Z,32.30
2022-08-01T05:59:42.071Z,32.20
2022-08-01T06:02:09.427Z,31.90
2022-08-01T06:04:36.612Z,32.00
2022-08-01T06:07:03.423Z,32.30
2022-08-01T06:09:31.831Z,32.60
2022-08-01T06:11:58.786Z,32.50
2022-08-01T06:14:25.570Z,32.60
2022-08-01T06:16:52.350Z,33.20
2022-08-01T06:19:19.194Z,33.50
2022-08-01T06:21:45.967Z,33.90
2022-08-01T06:24:12.726Z,34.50
2022-08-01T06:26:39.569Z,34.90
2022-08-01T06:29:06.320Z,35.00
2022-08-01T06:31:33.895Z,35.40
2022-08-01T06:34:00.974Z,36.00
2022-08-01T06:36:27.837Z,36.60
2022-08-01T06:38:54.655Z,37.10
2022-08-01T06:41:21.509Z,37.70
2022-08-01T06:43:48.290Z,38.30
2022-08-01T06:46:15.073Z,38.40
2022-08-01T06:48:42.191Z,38.30
2022-08-01T06:51:09.250Z,38.70
2022-08-01T06:53:39.045Z,39.30
2022-08-01T06:56:06.072Z,39.80
2022-08-01T06:58:32.842Z,39.80
2022-08-01T07:00:59.742Z,39.80
2022-08-01T07:03:27.802Z,38.90
2022-08-01T07:06:13.454Z,36.90
2022-08-01T07:08:41.915Z,35.60
2022-08-01T07:11:08.794Z,35.10
2022-08-01T07:13:43.613Z,34.80
2022-08-01T07:16:11.308Z,34.70
2022-08-01T07:18:38.230Z,34.60
2022-08-01T07:21:05.096Z,34.50
2022-08-01T07:23:36.653Z,34.30
2022-08-01T07:26:04.103Z,34.50
2022-08-01T07:28:30.975Z,35.00
2022-08-01T07:30:57.747Z,36.00
2022-08-01T07:33:24.546Z,37.50
2022-08-01T07:35:51.772Z,39.20
2022-08-01T07:38:18.571Z,40.70
2022-08-01T07:40:45.389Z,41.40
2022-08-01T07:43:12.223Z,41.30
2022-08-01T07:45:38.979Z,41.10
2022-08-01T07:48:13.520Z,40.80
2022-08-01T07:50:40.353Z,39.90
2022-08-01T07:53:07.339Z,39.10
2022-08-01T07:55:34.109Z,38.70
2022-08-01T07:58:00.884Z,37.80
2022-08-01T08:00:28.688Z,36.70
2022-08-01T08:02:55.458Z,36.10
2022-08-01T08:05:51.379Z,36.10
2022-08-01T08:08:09.375Z,36.50
2022-08-01T08:10:36.117Z,36.70
2022-08-01T08:13:03.001Z,36.60
2022-08-01T08:15:29.943Z,36.00
2022-08-01T08:17:56.813Z,35.30
2022-08-01T08:20:28.528Z,35.00
2022-08-01T08:22:55.458Z,35.10
2022-08-01T08:25:23.068Z,35.10
2022-08-01T08:27:53.711Z,36.00
2022-08-01T08:30:20.543Z,37.30
2022-08-01T08:32:49.026Z,38.50
2022-08-01T08:40:46.505Z,40.60
2022-08-01T08:43:13.281Z,40.70
2022-08-01T08:45:59.880Z,40.80
2022-08-01T08:48:27.809Z,41.10
2022-08-01T08:50:54.887Z,42.00
2022-08-01T08:53:21.711Z,42.60
2022-08-01T08:55:55.875Z,42.90
2022-08-01T08:58:26.370Z,42.90
2022-08-01T09:00:58.576Z,43.20
2022-08-01T09:03:25.428Z,43.50
2022-08-01T09:05:52.252Z,43.60
2022-08-01T09:08:19.033Z,44.20
2022-08-01T09:10:45.796Z,44.70
2022-08-01T09:13:13.399Z,45.20
2022-08-01T09:15:51.313Z,44.50
2022-08-01T09:18:35.109Z,43.60
2022-08-01T09:21:11.954Z,43.30
2022-08-01T09:23:40.859Z,42.70
2022-08-01T09:26:22.420Z,42.90
2022-08-01T09:28:51.216Z,43.50
2022-08-01T09:31:19.162Z,44.00
2022-08-01T09:33:56.492Z,44.10
2022-08-01T09:36:26.458Z,44.30
2022-08-01T09:38:54.155Z,44.50
2022-08-01T09:41:37.575Z,44.20
2022-08-01T09:44:06.992Z,44.30
2022-08-01T09:46:35.381Z,44.70
2022-08-01T09:49:03.278Z,44.80
2022-08-01T09:51:57.904Z,44.00
2022-08-01T09:54:31.903Z,43.40
2022-08-01T09:57:17.551Z,43.20
2022-08-01T09:59:57.886Z,42.70
2022-08-01T10:02:32.482Z,42.00
2022-08-01T10:05:03.634Z,41.10
2022-08-01T10:07:43.425Z,40.30
2022-08-01T10:10:14.799Z,39.30
2022-08-01T10:12:44.339Z,38.20
2022-08-01T10:15:12.813Z,37.20
2022-08-01T10:17:50.954Z,36.50
2022-08-01T10:20:30.484Z,36.10
2022-08-01T10:22:59.963Z,35.90
2022-08-01T10:25:43.107Z,35.40
2022-08-01T10:28:21.348Z,35.20
2022-08-01T10:30:50.801Z,35.20
2022-08-01T10:33:49.950Z,35.20
2022-08-01T10:36:08.666Z,35.30
2022-08-01T10:38:36.001Z,35.30
2022-08-01T10:41:06.808Z,35.40
2022-08-01T10:43:36.524Z,35.60
2022-08-01T10:46:04.538Z,36.00
2022-08-01T10:48:33.227Z,36.30
2022-08-01T10:51:05.629Z,36.50
2022-08-01T10:53:49.015Z,36.40
2022-08-01T10:56:18.188Z,36.20
2022-08-01T11:04:16.467Z,36.10
2022-08-01T11:06:44.398Z,36.20
2022-08-01T11:09:16.493Z,36.20
2022-08-01T11:11:58.797Z,36.10
2022-08-01T11:14:46.724Z,35.90
2022-08-01T11:17:37.472Z,35.50
2022-08-01T11:20:06.400Z,35.40
2022-08-01T11:26:03.994Z,35.50
2022-08-01T11:28:41.230Z,35.50
2022-08-01T11:31:17.423Z,35.60
2022-08-01T11:33:46.845Z,35.70
2022-08-01T11:36:15.614Z,35.60
2022-08-01T11:38:43.517Z,35.50
2022-08-01T11:41:14.957Z,35.50
2022-08-01T11:44:00.330Z,35.40
2022-08-01T11:52:01.366Z,35.60
2022-08-01T11:54:36.155Z,35.60
2022-08-01T11:57:05.306Z,35.40
2022-08-01T12:00:03.538Z,35.30
2022-08-01T12:02:37.728Z,35.30
2022-08-01T12:05:12.037Z,35.30
2022-08-01T12:07:39.936Z,35.20
2022-08-01T12:10:07.693Z,35.30
2022-08-01T12:12:34.974Z,35.10
2022-08-01T12:15:02.443Z,34.80
2022-08-01T12:17:30.212Z,34.60
2022-08-01T12:19:57.010Z,34.50
2022-08-01T12:22:24.231Z,34.60
2022-08-01T12:24:51.014Z,34.60
2022-08-01T12:27:27.536Z,34.60
2022-08-01T12:29:54.567Z,34.50
2022-08-01T12:32:30.840Z,34.40
2022-08-01T12:35:03.905Z,34.40
2022-08-01T12:37:30.664Z,34.50
2022-08-01T12:39:58.518Z,34.50
2022-08-01T12:42:25.465Z,34.50
2022-08-01T12:44:52.845Z,34.40
2022-08-01T12:47:20.245Z,34.20
2022-08-01T12:49:47.091Z,34.20
2022-08-01T12:52:14.017Z,34.20
2022-08-01T12:55:04.228Z,34.30
2022-08-01T12:57:33.364Z,34.30
2022-08-01T13:00:19.497Z,34.30
2022-08-01T13:02:46.936Z,34.10
2022-08-01T13:05:13.929Z,34.20
2022-08-01T13:07:45.591Z,34.40
2022-08-01T13:10:12.965Z,34.60
2022-08-01T13:12:40.341Z,34.70
2022-08-01T13:15:41.460Z,34.70
2022-08-01T13:18:27.328Z,34.40
2022-08-01T13:21:12.860Z,34.00
2022-08-01T13:23:58.869Z,33.80
2022-08-01T13:26:45.715Z,33.70
2022-08-01T13:29:13.834Z,33.80
2022-08-01T13:31:40.856Z,34.10
2022-08-01T13:34:07.822Z,34.30
2022-08-01T13:36:35.050Z,34.50
2022-08-01T13:39:20.257Z,34.60
2022-08-01T13:41:47.247Z,34.70
2022-08-01T13:44:14.434Z,34.70
2022-08-01T13:46:49.975Z,34.70
2022-08-01T13:49:18.941Z,34.70
2022-08-01T13:51:46.904Z,34.70
2022-08-01T13:54:13.764Z,34.60
2022-08-01T13:56:40.522Z,34.50
2022-08-01T13:59:07.773Z,34.40
2022-08-01T14:01:35.155Z,34.40
2022-08-01T14:04:02.265Z,34.30
2022-08-01T14:06:29.099Z,34.20
2022-08-01T14:08:55.852Z,34.20
2022-08-01T14:11:22.637Z,34.20
2022-08-01T14:13:49.453Z,34.20
2022-08-01T14:16:16.301Z,34.20
2022-08-01T14:18:44.207Z,34.00
2022-08-01T14:21:11.360Z,33.80
2022-08-01T14:23:38.173Z,33.80
2022-08-01T14:26:11.470Z,33.70
2022-08-01T14:28:39.308Z,33.60
2022-08-01T14:31:09.075Z,33.50
2022-08-01T14:33:35.929Z,33.50
2022-08-01T14:36:28.474Z,33.60
2022-08-01T14:38:50.126Z,33.60
2022-08-01T14:41:16.975Z,33.70
2022-08-01T14:43:43.872Z,33.80
2022-08-01T14:46:11.157Z,33.90
2022-08-01T14:48:38.059Z,34.00
2022-08-01T14:51:05.348Z,34.20
2022-08-01T14:53:34.171Z,34.30
2022-08-01T14:56:02.852Z,34.30
2022-08-01T14:58:29.666Z,34.30
2022-08-01T15:00:59.007Z,34.30
2022-08-01T15:03:26.439Z,34.20
2022-08-01T15:05:53.296Z,34.10
2022-08-01T15:08:20.081Z,33.80
2022-08-01T15:10:47.141Z,33.60
2022-08-01T15:13:13.918Z,33.50
2022-08-01T15:15:40.700Z,33.50
2022-08-01T15:18:07.568Z,33.40
2022-08-01T15:20:34.412Z,33.20
2022-08-01T15:23:01.216Z,33.00
2022-08-01T15:25:40.935Z,32.90
2022-08-01T15:28:09.454Z,33.00
2022-08-01T15:30:36.276Z,33.00
2022-08-01T15:33:03.024Z,33.10
2022-08-01T15:35:29.846Z,33.20
2022-08-01T15:37:56.722Z,33.20
2022-08-01T15:40:23.556Z,33.20
2022-08-01T15:42:50.336Z,33.20
2022-08-01T15:45:45.913Z,33.20
2022-08-01T15:48:08.751Z,33.20
2022-08-01T15:50:35.624Z,33.20
2022-08-01T15:53:02.397Z,33.10
2022-08-01T15:55:29.135Z,33.10
2022-08-01T15:57:56.011Z,33.10
2022-08-01T16:00:22.893Z,33.00
2022-08-01T16:02:49.938Z,33.00
2022-08-01T16:05:20.396Z,32.90
2022-08-01T16:08:01.439Z,32.90
2022-08-01T16:10:29.475Z,32.90
2022-08-01T16:12:56.242Z,32.90
2022-08-01T16:15:23.136Z,32.90
2022-08-01T16:18:04.084Z,32.90
2022-08-01T16:20:30.855Z,32.80
2022-08-01T16:22:57.680Z,32.80
2022-08-01T16:25:24.482Z,32.80
2022-08-01T16:27:51.232Z,32.70
2022-08-01T16:30:18.002Z,32.70
2022-08-01T16:32:48.871Z,32.60
2022-08-01T16:35:21.641Z,32.60
2022-08-01T16:37:51.346Z,32.50
2022-08-01T16:40:18.111Z,32.50
2022-08-01T16:42:45.698Z,32.40
2022-08-01T16:45:14.460Z,32.40
2022-08-01T16:47:41.505Z,32.40
2022-08-01T16:50:09.686Z,32.30
2022-08-01T16:52:41.986Z,32.30
2022-08-01T16:55:09.635Z,32.20
2022-08-01T16:57:39.438Z,32.10
2022-08-01T17:00:09.870Z,32.00
2022-08-01T17:02:37.254Z,31.90
2022-08-01T17:05:08.390Z,31.80
2022-08-01T17:07:36.146Z,31.80
2022-08-01T17:10:03.031Z,31.80
2022-08-01T17:12:29.808Z,31.60
2022-08-01T17:14:56.595Z,31.60
2022-08-01T17:17:23.558Z,31.50
2022-08-01T17:19:50.438Z,31.50
2022-08-01T17:22:17.296Z,31.40
2022-08-01T17:24:44.110Z,31.30
2022-08-01T17:27:13.258Z,31.20
2022-08-01T17:29:44.083Z,31.20
2022-08-01T17:32:11.407Z,31.00
2022-08-01T17:34:40.047Z,31.00
2022-08-01T17:37:07.151Z,30.90
2022-08-01T17:39:38.513Z,30.80
2022-08-01T17:42:06.004Z,30.70
2022-08-01T17:44:32.764Z,30.60
2022-08-01T17:46:59.540Z,30.40
2022-08-01T17:49:52.316Z,30.40
2022-08-01T17:52:13.475Z,30.40
2022-08-01T17:54:40.228Z,30.20
2022-08-01T17:57:08.240Z,30.10
2022-08-01T17:59:35.400Z,30.10
2022-08-01T18:02:02.307Z,30.00
2022-08-01T18:04:31.393Z,29.90
2022-08-01T18:07:00.978Z,29.80
2022-08-01T18:09:32.662Z,29.70
2022-08-01T18:11:59.967Z,29.60
2022-08-01T18:14:32.591Z,29.50
2022-08-01T18:17:08.465Z,29.50
2022-08-01T18:19:38.834Z,29.40
2022-08-01T18:22:05.626Z,29.30
2022-08-01T18:24:41.338Z,29.20
2022-08-01T18:27:08.483Z,29.10
2022-08-01T18:29:47.501Z,29.00
2022-08-01T18:32:15.198Z,28.80
2022-08-01T18:34:41.970Z,28.70
2022-08-01T18:37:10.285Z,28.50
2022-08-01T18:39:39.434Z,28.40
2022-08-01T18:42:06.292Z,28.30
2022-08-01T18:44:33.186Z,28.20
2022-08-01T18:46:59.951Z,28.00
2022-08-01T18:49:26.846Z,28.00
2022-08-01T18:51:54.376Z,27.90
2022-08-01T18:54:21.261Z,27.80
2022-08-01T18:56:48.060Z,27.80
2022-08-01T18:59:14.852Z,27.70
2022-08-01T19:01:41.702Z,27.70
2022-08-01T19:04:08.747Z,27.60
2022-08-01T19:06:35.855Z,27.50
2022-08-01T19:09:03.675Z,27.50
2022-08-01T19:11:31.127Z,27.40
2022-08-01T19:13:58.224Z,27.30
2022-08-01T19:16:25.146Z,27.30
2022-08-01T19:18:52.199Z,27.20
2022-08-01T19:21:18.964Z,27.10
2022-08-01T19:24:04.441Z,27.00
2022-08-01T19:26:31.596Z,26.90
2022-08-01T19:29:00.550Z,26.80
2022-08-01T19:31:27.862Z,26.70
2022-08-01T19:33:55.380Z,26.60
2022-08-01T19:36:22.338Z,26.50
2022-08-01T19:38:49.448Z,26.50
2022-08-01T19:41:16.637Z,26.40
2022-08-01T19:43:46.533Z,26.30
2022-08-01T19:46:17.638Z,26.20
2022-08-01T19:48:48.552Z,26.10
2022-08-01T19:51:18.440Z,26.10
2022-08-01T19:53:46.990Z,26.00
2022-08-01T19:56:13.775Z,25.90
2022-08-01T19:58:42.529Z,25.80
2022-08-01T20:01:09.812Z,25.70
2022-08-01T20:03:36.760Z,25.70
2022-08-01T20:06:04.141Z,25.70
2022-08-01T20:08:31.303Z,25.70
2022-08-01T20:11:01.883Z,25.70
2022-08-01T20:13:36.856Z,25.60
2022-08-01T20:16:06.335Z,25.60
2022-08-01T20:18:33.125Z,25.50
2022-08-01T20:20:59.951Z,25.50
2022-08-01T20:23:27.440Z,25.40
2022-08-01T20:25:55.172Z,25.40
2022-08-01T20:28:22.607Z,25.30
2022-08-01T20:30:50.757Z,25.20
2022-08-01T20:33:17.506Z,25.10
2022-08-01T20:35:53.512Z,25.00
2022-08-01T20:38:23.159Z,25.00
2022-08-01T20:40:51.350Z,25.00
2022-08-01T20:43:19.188Z,24.90
2022-08-01T20:45:46.101Z,24.90
2022-08-01T20:48:13.334Z,24.80
2022-08-01T20:50:58.846Z,24.80
2022-08-01T20:53:26.213Z,24.70
2022-08-01T20:55:59.949Z,24.60
2022-08-01T20:58:27.984Z,24.60
2022-08-01T21:00:54.841Z,24.60
2022-08-01T21:03:23.721Z,24.50
2022-08-01T21:05:58.730Z,24.50
2022-08-01T21:08:44.887Z,24.50
2022-08-01T21:11:13.305Z,24.50
2022-08-01T21:13:43.728Z,24.40
2022-08-01T21:16:23.814Z,24.30
2022-08-01T21:19:16.769Z,24.20
2022-08-01T21:21:42.743Z,24.10
2022-08-01T21:24:15.506Z,24.00
2022-08-01T21:26:42.353Z,24.00
2022-08-01T21:29:10.964Z,24.00
2022-08-01T21:31:40.401Z,24.00
2022-08-01T21:34:08.300Z,23.90
2022-08-01T21:36:35.358Z,23.90
2022-08-01T21:39:02.509Z,23.90
2022-08-01T21:41:56.052Z,23.90
2022-08-01T21:44:16.640Z,23.90
2022-08-01T21:46:43.418Z,23.80
2022-08-01T21:49:10.197Z,23.80
2022-08-01T21:51:45.647Z,23.70
2022-08-01T21:54:35.398Z,23.70
2022-08-01T21:57:05.926Z,23.60
2022-08-01T21:59:36.365Z,23.60
2022-08-01T22:02:04.175Z,23.60
2022-08-01T22:04:33.806Z,23.50
2022-08-01T22:07:01.028Z,23.50
2022-08-01T22:09:27.819Z,23.50
2022-08-01T22:11:59.550Z,23.40
2022-08-01T22:14:29.117Z,23.30
2022-08-01T22:16:55.930Z,23.30
2022-08-01T22:19:32.403Z,23.30
2022-08-01T22:22:44.600Z,23.20
2022-08-01T22:24:57.740Z,23.20
2022-08-01T22:28:06.019Z,23.20
2022-08-01T22:30:14.980Z,23.10
2022-08-01T22:32:42.415Z,23.10
2022-08-01T22:35:10.792Z,23.00
2022-08-01T22:37:57.463Z,23.00
2022-08-01T22:40:24.498Z,23.00
2022-08-01T22:42:56.987Z,22.90
2022-08-01T22:45:28.825Z,22.80
2022-08-01T22:48:00.121Z,22.80
2022-08-01T22:50:36.164Z,22.80
2022-08-01T22:53:06.190Z,22.80
2022-08-01T22:55:59.361Z,22.80
2022-08-01T22:58:19.745Z,22.70
2022-08-01T23:00:47.916Z,22.70
2022-08-01T23:03:17.506Z,22.70
2022-08-01T23:05:52.529Z,22.60
2022-08-01T23:08:20.182Z,22.50
2022-08-01T23:10:46.952Z,22.50
2022-08-01T23:13:14.590Z,22.40
2022-08-01T23:15:43.514Z,22.40
2022-08-01T23:18:19.307Z,22.40
2022-08-01T23:20:46.052Z,22.40
2022-08-01T23:23:12.857Z,22.40
2022-08-01T23:25:39.652Z,22.40
2022-08-01T23:28:06.555Z,22.40
2022-08-01T23:30:33.597Z,22.30
2022-08-01T23:33:00.600Z,22.30
2022-08-01T23:35:27.529Z,22.30
2022-08-01T23:37:58.436Z,22.30
2022-08-01T23:40:30.650Z,22.30
2022-08-01T23:42:57.403Z,22.20
2022-08-01T23:45:24.221Z,22.20
2022-08-01T23:47:51.214Z,22.10
2022-08-01T23:50:18.006Z,22.00
2022-08-01T23:52:48.421Z,22.00
2022-08-01T23:55:16.790Z,21.90
2022-08-01T23:57:44.273Z,21.90
